Time,TemperatureF,DewpointF,PressureIn,WindDirection,WindDirectionDegrees,WindSpeedMPH,WindSpeedGustMPH,Humidity,HourlyPrecipIn,Conditions,Clouds,dailyrainin,SolarRadiationWatts/m^2,SoftwareType,DateUTC
2013-02-21 00:00:00,26.2,19.4,29.55,West,281,0.0,2.0,75,0.00,CLR,,0.00,0.0,WeatherDisplay:10.37,2013-02-21 05:00:00,
2013-02-21 00:05:00,26.3,19.1,29.55,West,281,0.0,0.0,74,0.00,CLR,,0.00,0.0,WeatherDisplay:10.37,2013-02-21 05:05:00,
2013-02-21 00:10:00,26.1,18.9,29.55,West,281,3.5,3.5,74,0.00,CLR,,0.00,0.0,WeatherDisplay:10.37,2013-02-21 05:10:00,
2013-02-21 00:15:00,26.0,19.5,29.55,West,281,3.5,3.5,76,0.00,CLR,,0.00,0.0,WeatherDisplay:10.37,2013-02-21 05:15:00,
2013-02-21 00:20:00,26.1,19.3,29.55,West,271,3.5,3.5,75,0.00,CLR,,0.00,0.0,WeatherDisplay:10.37,2013-02-21 05:20:00,
2013-02-21 00:25:00,26.3,18.8,29.55,ESE,114,10.4,10.4,73,0.00,CLR,,0.00,0.0,WeatherDisplay:10.37,2013-02-21 05:25:00,
2013-02-21 00:30:00,26.4,18.9,29.55,West,279,3.5,3.5,73,0.00,CLR,,0.00,0.0,WeatherDisplay:10.37,2013-02-21 05:30:00,
2013-02-21 00:35:00,26.5,18.7,29.55,WNW,288,6.0,6.0,72,0.00,CLR,,0.00,0.0,WeatherDisplay:10.37,2013-02-21 05:35:00,
2013-02-21 00:40:00,26.6,18.5,29.55,WSW,253,9.2,9.2,71,0.00,CLR,,0.00,0.0,WeatherDisplay:10.37,2013-02-21 05:40:00,
2013-02-21 00:45:00,26.6,18.1,29.55,WNW,290,11.5,11.5,70,0.00,CLR,,0.00,0.0,WeatherDisplay:10.37,2013-02-21 05:45:00,
2013-02-21 00:50:00,26.7,18.2,29.55,West,268,15.0,15.0,70,0.00,CLR,,0.00,0.0,WeatherDisplay:10.37,2013-02-21 05:50:00,
2013-02-21 00:55:00,26.8,18.0,29.55,WNW,288,11.5,11.5,69,0.00,CLR,,0.00,0.0,WeatherDisplay:10.37,2013-02-21 05:55:00,
2013-02-21 01:00:00,26.9,18.1,29.55,WNW,302,10.0,10.0,69,0.00,CLR,,0.00,0.0,WeatherDisplay:10.37,2013-02-21 06:00:00,
2013-02-21 01:05:00,26.9,18.4,29.55,WNW,288,10.0,10.0,70,0.00,CLR,,0.00,0.0,WeatherDisplay:10.37,2013-02-21 06:05:00,
2013-02-21 01:10:00,26.8,17.6,29.55,WNW,292,3.5,3.5,68,0.00,CLR,,0.00,0.0,WeatherDisplay:10.37,2013-02-21 06:10:00,
2013-02-21 01:15:00,26.8,18.0,29.55,WNW,286,10.4,10.4,69,0.00,CLR,,0.00,0.0,WeatherDisplay:10.37,2013-02-21 06:15:00,
2013-02-21 01:20:00,26.8,17.6,29.55,NW,304,5.8,5.8,68,0.00,CLR,,0.00,0.0,WeatherDisplay:10.37,2013-02-21 06:20:00,
2013-02-21 01:25:00,26.7,17.6,29.55,WNW,300,4.6,4.6,68,0.00,CLR,,0.00,0.0,WeatherDisplay:10.37,2013-02-21 06:25:00,
2013-02-21 01:30:00,26.5,18.0,29.55,West,275,6.9,6.9,70,0.00,CLR,,0.00,0.0,WeatherDisplay:10.37,2013-02-21 06:30:00,
2013-02-21 01:35:00,26.2,18.1,29.55,West,273,3.5,3.5,71,0.00,CLR,,0.00,0.0,WeatherDisplay:10.37,2013-02-21 06:35:00,
2013-02-21 01:40:00,26.2,17.7,29.55,WNW,290,3.5,3.5,70,0.00,CLR,,0.00,0.0,WeatherDisplay:10.37,2013-02-21 06:40:00,
2013-02-21 01:45:00,26.2,17.7,29.55,WNW,291,4.0,4.0,70,0.00,CLR,,0.00,0.0,WeatherDisplay:10.37,2013-02-21 06:45:00,
2013-02-21 01:50:00,26.2,17.7,29.55,WNW,287,2.3,2.3,70,0.00,CLR,,0.00,0.0,WeatherDisplay:10.37,2013-02-21 06:50:00,
2013-02-21 01:55:00,26.2,17.7,29.55,West,281,3.5,3.5,70,0.00,CLR,,0.00,0.0,WeatherDisplay:10.37,2013-02-21 06:55:00,
2013-02-21 02:00:00,26.0,18.5,29.55,West,280,0.0,0.2,73,0.00,CLR,,0.00,0.0,WeatherDisplay:10.37,2013-02-21 07:00:00,
2013-02-21 02:05:00,25.8,18.7,29.55,West,261,11.5,11.5,74,0.00,CLR,,0.00,0.0,WeatherDisplay:10.37,2013-02-21 07:05:00,
2013-02-21 02:10:00,25.8,18.3,29.55,SSW,202,2.0,2.0,73,0.00,CLR,,0.00,0.0,WeatherDisplay:10.37,2013-02-21 07:10:00,
2013-02-21 02:15:00,25.8,18.0,29.55,WNW,288,3.5,3.5,72,0.00,CLR,,0.00,0.0,WeatherDisplay:10.37,2013-02-21 07:15:00,
2013-02-21 02:20:00,25.8,18.0,29.55,WNW,288,11.5,11.5,72,0.00,CLR,,0.00,0.0,WeatherDisplay:10.37,2013-02-21 07:20:00,
2013-02-21 02:25:00,25.8,17.7,29.56,West,273,5.0,5.0,71,0.00,CLR,,0.00,0.0,WeatherDisplay:10.37,2013-02-21 07:25:00,
2013-02-21 02:30:00,25.9,17.5,29.56,West,271,6.9,6.9,70,0.00,CLR,,0.00,0.0,WeatherDisplay:10.37,2013-02-21 07:30:00,
2013-02-21 02:35:00,26.0,17.2,29.56,WNW,284,20.7,20.7,69,0.00,CLR,,0.00,0.0,WeatherDisplay:10.37,2013-02-21 07:35:00,
2013-02-21 02:40:00,26.1,17.0,29.56,WNW,286,8.1,8.1,68,0.00,CLR,,0.00,0.0,WeatherDisplay:10.37,2013-02-21 07:40:00,
2013-02-21 02:45:00,26.1,17.0,29.56,WNW,291,18.4,18.4,68,0.00,CLR,,0.00,0.0,WeatherDisplay:10.37,2013-02-21 07:45:00,
2013-02-21 02:50:00,26.0,16.9,29.56,WNW,286,3.5,4.5,68,0.00,CLR,,0.00,0.0,WeatherDisplay:10.37,2013-02-21 07:50:00,
2013-02-21 02:55:00,25.8,16.7,29.57,WNW,284,4.6,4.6,68,0.00,CLR,,0.00,0.0,WeatherDisplay:10.37,2013-02-21 07:55:00,
2013-02-21 03:00:00,25.5,15.7,29.57,NW,304,8.1,8.1,66,0.00,CLR,,0.00,0.0,WeatherDisplay:10.37,2013-02-21 08:00:00,
2013-02-21 03:05:00,25.3,15.2,29.57,NW,304,11.5,11.5,65,0.00,CLR,,0.00,0.0,WeatherDisplay:10.37,2013-02-21 08:05:00,
2013-02-21 03:10:00,25.1,15.0,29.57,West,263,10.4,10.4,65,0.00,CLR,,0.00,0.0,WeatherDisplay:10.37,2013-02-21 08:10:00,
2013-02-21 03:15:00,25.0,15.2,29.57,West,262,1.2,0.0,66,0.00,CLR,,0.00,0.0,WeatherDisplay:10.37,2013-02-21 08:15:00,
2013-02-21 03:20:00,24.8,15.7,29.57,West,262,1.2,1.2,68,0.00,CLR,,0.00,0.0,WeatherDisplay:10.37,2013-02-21 08:20:00,
2013-02-21 03:25:00,24.7,15.6,29.57,West,262,0.0,0.0,68,0.00,CLR,,0.00,0.0,WeatherDisplay:10.37,2013-02-21 08:25:00,
2013-02-21 03:30:00,24.4,16.0,29.57,WNW,296,2.3,0.0,70,0.00,CLR,,0.00,0.0,WeatherDisplay:10.37,2013-02-21 08:30:00,
2013-02-21 03:35:00,24.2,15.8,29.57,WNW,296,3.5,3.5,70,0.00,CLR,,0.00,0.0,WeatherDisplay:10.37,2013-02-21 08:35:00,
2013-02-21 03:40:00,23.9,15.5,29.57,WNW,296,2.3,2.3,70,0.00,CLR,,0.00,0.0,WeatherDisplay:10.37,2013-02-21 08:40:00,
2013-02-21 03:45:00,23.6,14.9,29.57,WNW,297,3.5,3.5,69,0.00,CLR,,0.00,0.0,WeatherDisplay:10.37,2013-02-21 08:45:00,
2013-02-21 03:50:00,23.4,15.1,29.57,WNW,296,3.5,3.5,70,0.00,CLR,,0.00,0.0,WeatherDisplay:10.37,2013-02-21 08:50:00,
2013-02-21 03:55:00,23.2,14.9,29.57,WNW,296,4.6,4.6,70,0.00,CLR,,0.00,0.0,WeatherDisplay:10.37,2013-02-21 08:55:00,
2013-02-21 04:00:00,23.0,14.7,29.57,WNW,297,2.3,2.3,70,0.00,CLR,,0.00,0.0,WeatherDisplay:10.37,2013-02-21 09:00:00,
2013-02-21 04:05:00,22.9,14.2,29.57,WNW,296,2.3,2.3,69,0.00,CLR,,0.00,0.0,WeatherDisplay:10.37,2013-02-21 09:05:00,
2013-02-21 04:10:00,22.7,14.4,29.57,WNW,296,3.5,3.5,70,0.00,CLR,,0.00,0.0,WeatherDisplay:10.37,2013-02-21 09:10:00,
2013-02-21 04:15:00,22.6,14.3,29.57,WNW,296,1.2,1.2,70,0.00,CLR,,0.00,0.0,WeatherDisplay:10.37,2013-02-21 09:15:00,
2013-02-21 04:20:00,22.6,14.0,29.57,WNW,296,3.5,3.5,69,0.00,CLR,,0.00,0.0,WeatherDisplay:10.37,2013-02-21 09:20:00,
2013-02-21 04:25:00,22.6,14.6,29.58,WNW,297,2.3,0.0,71,0.00,CLR,,0.00,0.0,WeatherDisplay:10.37,2013-02-21 09:25:00,
2013-02-21 04:30:00,22.5,15.5,29.58,WNW,296,0.0,0.0,74,0.00,CLR,,0.00,0.0,WeatherDisplay:10.37,2013-02-21 09:30:00,
2013-02-21 04:35:00,22.4,15.7,29.58,WNW,296,0.0,0.0,75,0.00,CLR,,0.00,0.0,WeatherDisplay:10.37,2013-02-21 09:35:00,
2013-02-21 04:40:00,22.2,15.5,29.58,WNW,296,0.0,0.0,75,0.00,CLR,,0.00,0.0,WeatherDisplay:10.37,2013-02-21 09:40:00,
2013-02-21 04:45:00,22.1,15.7,29.58,WNW,296,0.0,0.0,76,0.00,CLR,,0.00,0.0,WeatherDisplay:10.37,2013-02-21 09:45:00,
2013-02-21 04:51:00,21.9,16.1,29.58,WNW,296,0.0,0.0,78,0.00,CLR,,0.00,0.0,WeatherDisplay:10.37,2013-02-21 09:51:00,
2013-02-21 04:56:00,21.7,15.9,29.58,WNW,296,0.0,0.0,78,0.00,CLR,,0.00,0.0,WeatherDisplay:10.37,2013-02-21 09:56:00,
2013-02-21 05:01:00,21.5,15.7,29.58,WNW,296,0.0,0.0,78,0.00,CLR,,0.00,0.0,WeatherDisplay:10.37,2013-02-21 10:01:00,
2013-02-21 05:06:00,21.2,15.7,29.58,WNW,296,0.0,0.0,79,0.00,CLR,,0.00,0.0,WeatherDisplay:10.37,2013-02-21 10:06:00,
2013-02-21 05:11:00,20.9,15.4,29.59,WNW,296,0.0,0.0,79,0.00,CLR,,0.00,0.0,WeatherDisplay:10.37,2013-02-21 10:11:00,
2013-02-21 05:16:00,20.6,15.1,29.59,WNW,296,0.0,0.0,79,0.00,CLR,,0.00,0.0,WeatherDisplay:10.37,2013-02-21 10:16:00,
2013-02-21 05:21:00,20.2,14.7,29.59,WNW,296,0.0,0.0,79,0.00,CLR,,0.00,0.0,WeatherDisplay:10.37,2013-02-21 10:21:00,
2013-02-21 05:26:00,19.9,14.7,29.60,WNW,296,0.0,0.0,80,0.00,CLR,,0.00,0.0,WeatherDisplay:10.37,2013-02-21 10:26:00,
2013-02-21 05:31:00,19.7,14.5,29.60,WNW,296,0.0,0.0,80,0.00,CLR,,0.00,0.0,WeatherDisplay:10.37,2013-02-21 10:31:00,
2013-02-21 05:36:00,19.3,14.1,29.60,WNW,296,0.0,0.0,80,0.00,CLR,,0.00,0.0,WeatherDisplay:10.37,2013-02-21 10:36:00,
2013-02-21 05:41:00,18.9,14.0,29.61,WNW,296,0.0,0.0,81,0.00,CLR,,0.00,0.0,WeatherDisplay:10.37,2013-02-21 10:41:00,
2013-02-21 05:46:00,18.7,13.8,29.61,WNW,296,0.0,0.0,81,0.00,CLR,,0.00,0.0,WeatherDisplay:10.37,2013-02-21 10:46:00,
2013-02-21 05:51:00,18.2,13.3,29.61,WNW,296,0.0,0.0,81,0.00,CLR,,0.00,0.0,WeatherDisplay:10.37,2013-02-21 10:51:00,
2013-02-21 05:56:00,17.9,13.3,29.60,WNW,296,0.0,0.0,82,0.00,CLR,,0.00,0.0,WeatherDisplay:10.37,2013-02-21 10:56:00,
2013-02-21 06:01:00,17.4,12.8,29.60,WNW,297,0.0,0.0,82,0.00,CLR,,0.00,0.0,WeatherDisplay:10.37,2013-02-21 11:01:00,
2013-02-21 06:06:00,17.0,12.5,29.60,WNW,296,2.3,2.3,82,0.00,CLR,,0.00,0.0,WeatherDisplay:10.37,2013-02-21 11:06:00,
2013-02-21 06:11:00,16.6,12.1,29.62,WNW,296,0.0,0.0,82,0.00,CLR,,0.00,0.0,WeatherDisplay:10.37,2013-02-21 11:11:00,
2013-02-21 06:16:00,16.4,12.1,29.62,WNW,296,0.0,0.0,83,0.00,CLR,,0.00,0.0,WeatherDisplay:10.37,2013-02-21 11:16:00,
2013-02-21 06:21:00,16.0,11.7,29.62,WNW,296,2.3,2.3,83,0.00,CLR,,0.00,0.0,WeatherDisplay:10.37,2013-02-21 11:21:00,
2013-02-21 06:26:00,15.5,11.3,29.62,WNW,296,3.5,3.5,83,0.00,CLR,,0.00,0.0,WeatherDisplay:10.37,2013-02-21 11:26:00,
2013-02-21 06:31:00,14.8,10.8,29.62,WNW,296,5.8,5.8,84,0.00,CLR,,0.00,5.0,WeatherDisplay:10.37,2013-02-21 11:31:00,
2013-02-21 06:36:00,14.5,10.5,29.62,WNW,297,0.0,0.0,84,0.00,CLR,,0.00,7.0,WeatherDisplay:10.37,2013-02-21 11:36:00,
2013-02-21 06:41:00,14.5,10.8,29.62,WNW,296,0.0,0.0,85,0.00,CLR,,0.00,11.0,WeatherDisplay:10.37,2013-02-21 11:41:00,
2013-02-21 06:46:00,14.5,10.8,29.62,WNW,296,0.0,0.0,85,0.00,SCT,,0.00,12.0,WeatherDisplay:10.37,2013-02-21 11:46:00,
2013-02-21 06:51:00,14.5,10.8,29.62,WNW,296,0.0,0.0,85,0.00,BKN,,0.00,14.0,WeatherDisplay:10.37,2013-02-21 11:51:00,
2013-02-21 06:56:00,14.5,10.8,29.63,WNW,297,0.0,0.0,85,0.00,BKN,,0.00,18.0,WeatherDisplay:10.37,2013-02-21 11:56:00,
2013-02-21 07:01:00,14.4,11.0,29.63,WNW,296,3.5,3.5,86,0.00,BKN,,0.00,23.0,WeatherDisplay:10.37,2013-02-21 12:01:00,
2013-02-21 07:06:00,14.3,10.9,29.64,WNW,296,2.3,2.3,86,0.00,BKN,,0.00,25.0,WeatherDisplay:10.37,2013-02-21 12:06:00,
2013-02-21 07:11:00,14.1,10.7,29.64,WNW,296,3.5,3.5,86,0.00,BKN,,0.00,25.0,WeatherDisplay:10.37,2013-02-21 12:11:00,
2013-02-21 07:16:00,13.8,10.4,29.64,WNW,296,3.5,3.5,86,0.00,BKN,,0.00,32.0,WeatherDisplay:10.37,2013-02-21 12:16:00,
2013-02-21 07:21:00,13.6,10.2,29.65,WNW,296,0.0,0.0,86,0.00,BKN,,0.00,44.0,WeatherDisplay:10.37,2013-02-21 12:21:00,
2013-02-21 07:26:00,13.5,10.1,29.65,WNW,296,0.0,0.0,86,0.00,SCT,,0.00,58.0,WeatherDisplay:10.37,2013-02-21 12:26:00,
2013-02-21 07:31:00,13.5,10.1,29.65,WNW,296,0.0,0.0,86,0.00,SCT,,0.00,77.0,WeatherDisplay:10.37,2013-02-21 12:31:00,
2013-02-21 07:36:00,13.6,10.2,29.65,WNW,296,3.0,3.0,86,0.00,BKN,,0.00,56.0,WeatherDisplay:10.37,2013-02-21 12:36:00,
2013-02-21 07:41:00,14.1,10.9,29.65,WNW,296,0.0,0.0,87,0.00,SCT,,0.00,65.0,WeatherDisplay:10.37,2013-02-21 12:41:00,
2013-02-21 07:46:00,14.3,11.1,29.65,WNW,296,0.0,0.0,87,0.00,BKN,,0.00,65.0,WeatherDisplay:10.37,2013-02-21 12:46:00,
2013-02-21 07:51:00,14.8,11.9,29.66,WNW,296,1.2,0.0,88,0.00,SCT,,0.00,90.0,WeatherDisplay:10.37,2013-02-21 12:51:00,
2013-02-21 07:56:00,15.1,11.9,29.66,WNW,296,0.0,0.0,87,0.00,BKN,,0.00,83.0,WeatherDisplay:10.37,2013-02-21 12:56:00,
2013-02-21 08:01:00,15.9,12.7,29.66,WNW,296,2.3,2.3,87,0.00,CLR,,0.00,253.0,WeatherDisplay:10.37,2013-02-21 13:01:00,
2013-02-21 08:06:00,18.0,14.3,29.66,WNW,296,0.0,0.0,85,0.00,CLR,,0.00,301.0,WeatherDisplay:10.37,2013-02-21 13:06:00,
2013-02-21 08:11:00,19.1,14.2,29.66,WNW,297,0.0,0.0,81,0.00,CLR,,0.00,336.0,WeatherDisplay:10.37,2013-02-21 13:11:00,
2013-02-21 08:16:00,19.8,13.8,29.66,WNW,296,0.0,0.0,77,0.00,CLR,,0.00,374.0,WeatherDisplay:10.37,2013-02-21 13:16:00,
2013-02-21 08:21:00,21.5,13.2,29.66,WNW,296,5.0,5.0,70,0.00,CLR,,0.00,387.0,WeatherDisplay:10.37,2013-02-21 13:21:00,
2013-02-21 08:26:00,22.0,12.4,29.66,WNW,298,10.4,10.4,66,0.00,CLR,,0.00,429.0,WeatherDisplay:10.37,2013-02-21 13:26:00,
2013-02-21 08:31:00,22.3,12.7,29.66,NW,305,6.9,6.9,66,0.00,CLR,,0.00,390.0,WeatherDisplay:10.37,2013-02-21 13:31:00,
2013-02-21 08:36:00,22.7,12.7,29.66,WNW,283,5.8,5.8,65,0.00,CLR,,0.00,376.0,WeatherDisplay:10.37,2013-02-21 13:36:00,
2013-02-21 08:41:00,22.7,12.0,29.66,WNW,296,11.5,11.5,63,0.00,FEW,,0.00,209.0,WeatherDisplay:10.37,2013-02-21 13:41:00,
2013-02-21 08:46:00,22.6,11.9,29.66,WNW,283,6.9,6.9,63,0.00,SCT,,0.00,190.0,WeatherDisplay:10.37,2013-02-21 13:46:00,
2013-02-21 08:51:00,22.6,11.9,29.66,WNW,291,10.4,10.4,63,0.00,SCT,,0.00,197.0,WeatherDisplay:10.37,2013-02-21 13:51:00,
2013-02-21 08:56:00,22.5,11.8,29.66,WNW,286,6.0,6.0,63,0.00,SCT,,0.00,204.0,WeatherDisplay:10.37,2013-02-21 13:56:00,
2013-02-21 09:01:00,22.4,11.7,29.66,WNW,288,10.4,10.4,63,0.00,FEW,,0.00,246.0,WeatherDisplay:10.37,2013-02-21 14:01:00,
2013-02-21 09:06:00,22.4,11.3,29.68,WNW,300,9.2,9.2,62,0.00,FEW,,0.00,253.0,WeatherDisplay:10.37,2013-02-21 14:06:00,
2013-02-21 09:11:00,22.5,11.4,29.68,NW,308,4.6,4.9,62,0.00,SCT,,0.00,251.0,WeatherDisplay:10.37,2013-02-21 14:11:00,
2013-02-21 09:16:00,22.6,11.5,29.68,West,279,9.2,9.2,62,0.00,SCT,,0.00,232.0,WeatherDisplay:10.37,2013-02-21 14:16:00,
2013-02-21 09:21:00,22.6,10.8,29.67,West,279,6.9,6.9,60,0.00,SCT,,0.00,232.0,WeatherDisplay:10.37,2013-02-21 14:21:00,
2013-02-21 09:26:00,22.4,11.7,29.67,WNW,284,4.6,4.6,63,0.00,SCT,,0.00,260.0,WeatherDisplay:10.37,2013-02-21 14:26:00,
2013-02-21 09:31:00,22.0,11.7,29.67,NW,308,5.8,5.8,64,0.00,SCT,,0.00,278.0,WeatherDisplay:10.37,2013-02-21 14:31:00,
2013-02-21 09:36:00,22.0,11.7,29.68,WNW,301,4.6,4.6,64,0.00,CLR,,0.00,367.0,WeatherDisplay:10.37,2013-02-21 14:36:00,
2013-02-21 09:41:00,22.2,11.9,29.68,NW,315,6.9,6.9,64,0.00,CLR,,0.00,378.0,WeatherDisplay:10.37,2013-02-21 14:41:00,
2013-02-21 09:46:00,22.2,11.5,29.68,NW,313,8.1,8.1,63,0.00,CLR,,0.00,397.0,WeatherDisplay:10.37,2013-02-21 14:46:00,
2013-02-21 09:51:00,22.5,12.1,29.68,NW,306,6.0,6.0,64,0.00,CLR,,0.00,408.0,WeatherDisplay:10.37,2013-02-21 14:51:00,
2013-02-21 09:56:00,23.2,12.1,29.68,WNW,290,13.0,13.0,62,0.00,FEW,,0.00,350.0,WeatherDisplay:10.37,2013-02-21 14:56:00,
2013-02-21 10:01:00,23.4,12.3,29.68,WNW,297,10.4,10.4,62,0.00,FEW,,0.00,353.0,WeatherDisplay:10.37,2013-02-21 15:01:00,
2013-02-21 10:06:00,23.6,11.7,29.68,West,281,10.4,10.4,60,0.00,FEW,,0.00,378.0,WeatherDisplay:10.37,2013-02-21 15:06:00,
2013-02-21 10:12:00,23.6,12.5,29.68,NW,315,10.4,10.4,62,0.00,CLR,,0.00,438.0,WeatherDisplay:10.37,2013-02-21 15:12:00,
2013-02-21 10:17:00,23.6,12.5,29.68,NW,306,15.0,15.0,62,0.00,FEW,,0.00,390.0,WeatherDisplay:10.37,2013-02-21 15:17:00,
2013-02-21 10:22:00,23.4,12.3,29.69,WNW,295,15.0,15.0,62,0.00,SCT,,0.00,343.0,WeatherDisplay:10.37,2013-02-21 15:22:00,
2013-02-21 10:27:00,23.5,11.6,29.69,WNW,293,12.7,12.7,60,0.00,FEW,,0.00,417.0,WeatherDisplay:10.37,2013-02-21 15:27:00,
2013-02-21 10:32:00,23.9,12.4,29.69,WNW,291,10.4,10.4,61,0.00,FEW,,0.00,443.0,WeatherDisplay:10.37,2013-02-21 15:32:00,
2013-02-21 10:37:00,24.0,12.1,29.69,NW,310,11.5,11.5,60,0.00,FEW,,0.00,381.0,WeatherDisplay:10.37,2013-02-21 15:37:00,
2013-02-21 10:42:00,23.7,12.6,29.69,NW,309,7.0,7.0,62,0.00,FEW,,0.00,392.0,WeatherDisplay:10.37,2013-02-21 15:42:00,
2013-02-21 10:47:00,23.4,12.6,29.69,NW,307,6.9,6.9,63,0.00,SCT,,0.00,316.0,WeatherDisplay:10.37,2013-02-21 15:47:00,
2013-02-21 10:52:00,23.5,12.7,29.70,WNW,295,6.9,6.9,63,0.00,SCT,,0.00,301.0,WeatherDisplay:10.37,2013-02-21 15:52:00,
2013-02-21 10:57:00,23.3,12.6,29.70,NW,316,8.1,8.1,63,0.00,SCT,,0.00,271.0,WeatherDisplay:10.37,2013-02-21 15:57:00,
2013-02-21 11:02:00,23.1,12.4,29.70,WNW,303,8.1,8.1,63,0.00,BKN,,0.00,237.0,WeatherDisplay:10.37,2013-02-21 16:02:00,
2013-02-21 11:07:00,23.1,13.1,29.70,NW,304,9.2,9.2,65,0.00,BKN,,0.00,248.0,WeatherDisplay:10.37,2013-02-21 16:07:00,
2013-02-21 11:12:00,23.0,13.0,29.70,West,271,10.4,10.4,65,0.00,BKN,,0.00,253.0,WeatherDisplay:10.37,2013-02-21 16:12:00,
2013-02-21 11:17:00,22.7,13.4,29.70,NW,310,5.8,5.8,67,0.00,BKN,,0.00,255.0,WeatherDisplay:10.37,2013-02-21 16:17:00,
2013-02-21 11:22:00,22.6,13.6,29.71,NW,306,5.8,5.8,68,0.00,BKN,,0.00,257.0,WeatherDisplay:10.37,2013-02-21 16:22:00,
2013-02-21 11:27:00,22.5,13.2,29.71,NW,306,8.1,8.1,67,0.00,BKN,,0.00,250.0,WeatherDisplay:10.37,2013-02-21 16:27:00,
2013-02-21 11:32:00,22.5,12.8,29.71,NW,313,5.8,5.8,66,0.00,SCT,,0.00,380.0,WeatherDisplay:10.37,2013-02-21 16:32:00,
2013-02-21 11:37:00,22.9,13.2,29.71,NW,313,5.8,5.8,66,0.00,CLR,,0.00,487.0,WeatherDisplay:10.37,2013-02-21 16:37:00,
2013-02-21 11:42:00,23.4,13.0,29.71,NW,305,5.8,5.8,64,0.00,CLR,,0.00,492.0,WeatherDisplay:10.37,2013-02-21 16:42:00,
2013-02-21 11:47:00,23.5,12.7,29.71,WNW,303,7.0,7.0,63,0.00,SCT,,0.00,457.0,WeatherDisplay:10.37,2013-02-21 16:47:00,
2013-02-21 11:52:00,24.0,12.9,29.71,West,278,6.9,6.9,62,0.00,CLR,,0.00,580.0,WeatherDisplay:10.37,2013-02-21 16:52:00,
2013-02-21 11:57:00,24.8,12.9,29.71,WNW,300,5.0,5.0,60,0.00,CLR,,0.00,624.0,WeatherDisplay:10.37,2013-02-21 16:57:00,
2013-02-21 12:02:00,25.2,13.2,29.71,WNW,294,5.8,5.8,60,0.00,FEW,,0.00,438.0,WeatherDisplay:10.37,2013-02-21 17:02:00,
2013-02-21 12:07:00,25.4,13.4,29.71,NW,311,12.7,12.7,60,0.00,SCT,,0.00,374.0,WeatherDisplay:10.37,2013-02-21 17:07:00,
2013-02-21 12:12:00,25.7,13.7,29.71,WNW,291,6.9,6.9,60,0.00,SCT,,0.00,334.0,WeatherDisplay:10.37,2013-02-21 17:12:00,
2013-02-21 12:17:00,25.6,13.6,29.71,NW,304,15.0,15.0,60,0.00,SCT,,0.00,332.0,WeatherDisplay:10.37,2013-02-21 17:17:00,
2013-02-21 12:22:00,25.2,13.6,29.71,West,269,14.0,14.0,61,0.00,SCT,,0.00,345.0,WeatherDisplay:10.37,2013-02-21 17:22:00,
2013-02-21 12:27:00,25.0,13.8,29.71,WNW,298,15.0,15.0,62,0.00,SCT,,0.00,309.0,WeatherDisplay:10.37,2013-02-21 17:27:00,
2013-02-21 12:32:00,24.7,13.5,29.71,WNW,298,12.7,12.7,62,0.00,SCT,,0.00,297.0,WeatherDisplay:10.37,2013-02-21 17:32:00,
2013-02-21 12:37:00,24.6,13.4,29.71,WNW,294,18.4,18.4,62,0.00,SCT,,0.00,281.0,WeatherDisplay:10.37,2013-02-21 17:37:00,
2013-02-21 12:42:00,24.4,13.2,29.71,West,279,16.1,16.1,62,0.00,BKN,,0.00,271.0,WeatherDisplay:10.37,2013-02-21 17:42:00,
2013-02-21 12:47:00,24.4,13.6,29.71,WNW,291,11.5,11.5,63,0.00,SCT,,0.00,278.0,WeatherDisplay:10.37,2013-02-21 17:47:00,
2013-02-21 12:52:00,24.5,13.7,29.72,West,261,11.5,11.5,63,0.00,BKN,,0.00,260.0,WeatherDisplay:10.37,2013-02-21 17:52:00,
2013-02-21 12:57:00,24.4,13.6,29.72,WNW,288,13.8,13.8,63,0.00,BKN,,0.00,241.0,WeatherDisplay:10.37,2013-02-21 17:57:00,
2013-02-21 13:02:00,24.3,13.5,29.72,West,281,9.2,9.2,63,0.00,BKN,,0.00,227.0,WeatherDisplay:10.37,2013-02-21 18:02:00,
2013-02-21 13:07:00,24.2,13.0,29.72,NW,325,10.4,10.4,62,0.00,BKN,,0.00,229.0,WeatherDisplay:10.37,2013-02-21 18:07:00,
2013-02-21 13:12:00,24.2,13.0,29.72,WNW,294,12.0,12.0,62,0.00,BKN,,0.00,234.0,WeatherDisplay:10.37,2013-02-21 18:12:00,
2013-02-21 13:17:00,24.3,13.1,29.72,NW,314,9.2,9.2,62,0.00,BKN,,0.00,221.0,WeatherDisplay:10.37,2013-02-21 18:17:00,
2013-02-21 13:22:00,24.4,13.6,29.72,NW,304,5.0,5.0,63,0.00,BKN,,0.00,229.0,WeatherDisplay:10.37,2013-02-21 18:22:00,
2013-02-21 13:27:00,24.6,13.4,29.72,West,280,6.9,6.9,62,0.00,BKN,,0.00,227.0,WeatherDisplay:10.37,2013-02-21 18:27:00,
2013-02-21 13:32:00,24.9,14.1,29.72,WNW,296,8.0,8.0,63,0.00,BKN,,0.00,223.0,WeatherDisplay:10.37,2013-02-21 18:32:00,
2013-02-21 13:37:00,24.8,14.0,29.73,NW,311,9.2,9.2,63,0.00,BKN,,0.00,230.0,WeatherDisplay:10.37,2013-02-21 18:37:00,
2013-02-21 13:42:00,24.8,14.0,29.73,WNW,300,6.0,6.0,63,0.00,SCT,,0.00,244.0,WeatherDisplay:10.37,2013-02-21 18:42:00,
2013-02-21 13:47:00,25.1,14.3,29.73,West,278,5.0,5.0,63,0.00,SCT,,0.00,257.0,WeatherDisplay:10.37,2013-02-21 18:47:00,
2013-02-21 13:52:00,25.1,14.3,29.73,NW,304,11.5,11.5,63,0.00,SCT,,0.00,253.0,WeatherDisplay:10.37,2013-02-21 18:52:00,
2013-02-21 13:57:00,25.2,14.7,29.73,WNW,302,4.6,4.6,64,0.00,SCT,,0.00,239.0,WeatherDisplay:10.37,2013-02-21 18:57:00,
2013-02-21 14:02:00,25.2,14.4,29.73,NW,307,11.5,11.5,63,0.00,SCT,,0.00,230.0,WeatherDisplay:10.37,2013-02-21 19:02:00,
2013-02-21 14:07:00,25.4,14.9,29.74,WNW,283,8.1,8.1,64,0.00,SCT,,0.00,221.0,WeatherDisplay:10.37,2013-02-21 19:07:00,
2013-02-21 14:12:00,25.6,14.7,29.74,NW,307,11.5,11.5,63,0.00,SCT,,0.00,227.0,WeatherDisplay:10.37,2013-02-21 19:12:00,
2013-02-21 14:17:00,25.7,14.5,29.74,NW,306,12.7,12.7,62,0.00,SCT,,0.00,214.0,WeatherDisplay:10.37,2013-02-21 19:17:00,
2013-02-21 14:22:00,25.8,14.9,29.75,West,275,12.0,12.0,63,0.00,SCT,,0.00,213.0,WeatherDisplay:10.37,2013-02-21 19:22:00,
2013-02-21 14:27:00,25.9,15.0,29.75,NW,311,16.0,16.0,63,0.00,SCT,,0.00,207.0,WeatherDisplay:10.37,2013-02-21 19:27:00,
2013-02-21 14:32:00,25.9,15.0,29.75,West,275,10.4,10.4,63,0.00,SCT,,0.00,199.0,WeatherDisplay:10.37,2013-02-21 19:32:00,
2013-02-21 14:37:00,25.8,14.9,29.75,WNW,290,12.7,12.7,63,0.00,BKN,,0.00,183.0,WeatherDisplay:10.37,2013-02-21 19:37:00,
2013-02-21 14:42:00,25.8,15.3,29.75,WNW,294,10.0,10.0,64,0.00,BKN,,0.00,178.0,WeatherDisplay:10.37,2013-02-21 19:42:00,
2013-02-21 14:47:00,25.8,14.9,29.75,NW,305,10.4,10.4,63,0.00,BKN,,0.00,162.0,WeatherDisplay:10.37,2013-02-21 19:47:00,
2013-02-21 14:52:00,25.9,15.0,29.76,NW,307,10.0,10.0,63,0.00,BKN,,0.00,148.0,WeatherDisplay:10.37,2013-02-21 19:52:00,
2013-02-21 14:57:00,26.0,15.1,29.76,WNW,282,11.5,11.5,63,0.00,BKN,,0.00,130.0,WeatherDisplay:10.37,2013-02-21 19:57:00,
2013-02-21 15:02:00,25.9,15.0,29.76,WNW,298,9.0,9.0,63,0.00,BKN,,0.00,132.0,WeatherDisplay:10.37,2013-02-21 20:02:00,
2013-02-21 15:07:00,26.0,15.1,29.77,West,279,10.0,10.0,63,0.00,BKN,,0.00,137.0,WeatherDisplay:10.37,2013-02-21 20:07:00,
2013-02-21 15:12:00,26.1,15.2,29.77,West,273,5.8,5.8,63,0.00,BKN,,0.00,134.0,WeatherDisplay:10.37,2013-02-21 20:12:00,
2013-02-21 15:17:00,26.1,15.2,29.77,WSW,256,8.0,8.0,63,0.00,BKN,,0.00,142.0,WeatherDisplay:10.37,2013-02-21 20:17:00,
2013-02-21 15:22:00,26.2,15.3,29.77,WNW,292,9.2,9.2,63,0.00,SCT,,0.00,149.0,WeatherDisplay:10.37,2013-02-21 20:22:00,
2013-02-21 15:27:00,26.2,15.3,29.77,WNW,292,4.6,4.6,63,0.00,SCT,,0.00,142.0,WeatherDisplay:10.37,2013-02-21 20:27:00,
2013-02-21 15:32:00,26.3,15.8,29.77,WNW,286,5.8,5.8,64,0.00,SCT,,0.00,132.0,WeatherDisplay:10.37,2013-02-21 20:32:00,
2013-02-21 15:37:00,26.4,15.5,29.78,West,272,10.4,10.4,63,0.00,SCT,,0.00,127.0,WeatherDisplay:10.37,2013-02-21 20:37:00,
2013-02-21 15:42:00,26.5,16.0,29.78,West,279,10.4,10.4,64,0.00,SCT,,0.00,118.0,WeatherDisplay:10.37,2013-02-21 20:42:00,
2013-02-21 15:47:00,26.5,16.0,29.78,NW,306,10.4,10.4,64,0.00,SCT,,0.00,105.0,WeatherDisplay:10.37,2013-02-21 20:47:00,
2013-02-21 15:52:00,26.5,16.0,29.78,West,278,6.9,6.9,64,0.00,SCT,,0.00,98.0,WeatherDisplay:10.37,2013-02-21 20:52:00,
2013-02-21 15:57:00,26.6,16.1,29.78,WSW,258,7.0,7.0,64,0.00,BKN,,0.00,90.0,WeatherDisplay:10.37,2013-02-21 20:57:00,
2013-02-21 16:02:00,26.6,16.1,29.78,West,267,7.0,7.0,64,0.00,SCT,,0.00,90.0,WeatherDisplay:10.37,2013-02-21 21:02:00,
2013-02-21 16:08:00,26.7,16.1,29.79,West,273,12.7,12.7,64,0.00,SCT,,0.00,84.0,WeatherDisplay:10.37,2013-02-21 21:08:00,
2013-02-21 16:13:00,26.8,16.2,29.79,West,269,10.4,10.4,64,0.00,BKN,,0.00,65.0,WeatherDisplay:10.37,2013-02-21 21:13:00,
2013-02-21 16:18:00,26.7,16.1,29.79,WNW,289,5.8,5.8,64,0.00,BKN,,0.00,56.0,WeatherDisplay:10.37,2013-02-21 21:18:00,
2013-02-21 16:23:00,26.7,16.1,29.80,WNW,293,10.4,10.4,64,0.00,BKN,,0.00,47.0,WeatherDisplay:10.37,2013-02-21 21:23:00,
2013-02-21 16:28:00,26.5,16.0,29.80,WNW,290,11.5,11.5,64,0.00,BKN,,0.00,44.0,WeatherDisplay:10.37,2013-02-21 21:28:00,
2013-02-21 16:33:00,26.3,15.8,29.80,West,265,11.5,11.5,64,0.00,BKN,,0.00,37.0,WeatherDisplay:10.37,2013-02-21 21:33:00,
2013-02-21 16:38:00,26.3,15.8,29.82,WSW,257,10.4,10.4,64,0.00,BKN,,0.00,32.0,WeatherDisplay:10.37,2013-02-21 21:38:00,
2013-02-21 16:43:00,26.2,16.0,29.82,WNW,289,7.0,7.0,65,0.00,BKN,,0.00,21.0,WeatherDisplay:10.37,2013-02-21 21:43:00,
2013-02-21 16:48:00,26.0,15.8,29.82,WNW,294,10.0,10.0,65,0.00,BKN,,0.00,19.0,WeatherDisplay:10.37,2013-02-21 21:48:00,
2013-02-21 16:53:00,25.9,15.7,29.83,WNW,290,4.6,4.6,65,0.00,BKN,,0.00,18.0,WeatherDisplay:10.37,2013-02-21 21:53:00,
2013-02-21 16:58:00,25.8,16.0,29.83,NW,310,12.7,12.7,66,0.00,BKN,,0.00,16.0,WeatherDisplay:10.37,2013-02-21 21:58:00,
2013-02-21 17:03:00,25.8,16.0,29.83,WNW,298,11.5,11.5,66,0.00,BKN,,0.00,14.0,WeatherDisplay:10.37,2013-02-21 22:03:00,
2013-02-21 17:08:00,25.8,16.3,29.85,West,275,16.1,16.1,67,0.00,BKN,,0.00,11.0,WeatherDisplay:10.37,2013-02-21 22:08:00,
2013-02-21 17:13:00,25.8,16.3,29.85,West,281,11.5,11.5,67,0.00,SCT,,0.00,9.0,WeatherDisplay:10.37,2013-02-21 22:13:00,
2013-02-21 17:18:00,25.7,16.6,29.85,West,275,13.8,13.8,68,0.00,CLR,,0.00,7.0,WeatherDisplay:10.37,2013-02-21 22:18:00,
2013-02-21 17:23:00,25.6,16.5,29.86,WNW,298,11.5,11.5,68,0.00,CLR,,0.00,5.0,WeatherDisplay:10.37,2013-02-21 22:23:00,
2013-02-21 17:28:00,25.6,16.5,29.86,WNW,295,15.0,15.0,68,0.00,CLR,,0.00,0.0,WeatherDisplay:10.37,2013-02-21 22:28:00,
2013-02-21 17:33:00,25.6,16.5,29.86,WSW,258,19.6,19.6,68,0.00,CLR,,0.00,0.0,WeatherDisplay:10.37,2013-02-21 22:33:00,
2013-02-21 17:38:00,25.6,16.5,29.87,WNW,290,11.5,11.5,68,0.00,CLR,,0.00,0.0,WeatherDisplay:10.37,2013-02-21 22:38:00,
2013-02-21 17:43:00,25.6,16.5,29.87,West,281,12.7,12.7,68,0.00,CLR,,0.00,0.0,WeatherDisplay:10.37,2013-02-21 22:43:00,
2013-02-21 17:48:00,25.6,16.2,29.87,West,272,16.1,16.1,67,0.00,CLR,,0.00,0.0,WeatherDisplay:10.37,2013-02-21 22:48:00,
2013-02-21 17:53:00,25.5,16.4,29.90,NW,310,13.8,13.8,68,0.00,CLR,,0.00,0.0,WeatherDisplay:10.37,2013-02-21 22:53:00,
2013-02-21 17:58:00,25.5,16.1,29.90,WNW,298,18.4,18.4,67,0.00,CLR,,0.00,0.0,WeatherDisplay:10.37,2013-02-21 22:58:00,
2013-02-21 18:03:00,25.5,16.1,29.90,West,276,15.0,15.0,67,0.00,CLR,,0.00,0.0,WeatherDisplay:10.37,2013-02-21 23:03:00,
2013-02-21 18:08:00,25.4,16.0,29.90,West,267,15.0,15.0,67,0.00,CLR,,0.00,0.0,WeatherDisplay:10.37,2013-02-21 23:08:00,
2013-02-21 18:13:00,25.4,16.3,29.90,WNW,290,19.6,19.6,68,0.00,CLR,,0.00,0.0,WeatherDisplay:10.37,2013-02-21 23:13:00,
2013-02-21 18:18:00,25.5,16.4,29.90,WNW,298,18.4,18.4,68,0.00,CLR,,0.00,0.0,WeatherDisplay:10.37,2013-02-21 23:18:00,
2013-02-21 18:23:00,25.5,16.4,29.92,NW,317,12.7,12.7,68,0.00,CLR,,0.00,0.0,WeatherDisplay:10.37,2013-02-21 23:23:00,
2013-02-21 18:28:00,25.5,16.4,29.92,WNW,286,17.3,17.3,68,0.00,CLR,,0.00,0.0,WeatherDisplay:10.37,2013-02-21 23:28:00,
2013-02-21 18:33:00,25.4,16.3,29.92,NW,310,18.4,18.4,68,0.00,CLR,,0.00,0.0,WeatherDisplay:10.37,2013-02-21 23:33:00,
2013-02-21 18:38:00,25.4,16.6,29.93,West,280,15.0,15.0,69,0.00,CLR,,0.00,0.0,WeatherDisplay:10.37,2013-02-21 23:38:00,
2013-02-21 18:43:00,25.4,16.6,29.93,WNW,288,7.0,7.0,69,0.00,CLR,,0.00,0.0,WeatherDisplay:10.37,2013-02-21 23:43:00,
2013-02-21 18:48:00,25.4,17.0,29.93,West,269,6.9,6.9,70,0.00,CLR,,0.00,0.0,WeatherDisplay:10.37,2013-02-21 23:48:00,
2013-02-21 18:53:00,25.5,17.1,29.94,West,279,13.8,13.8,70,0.00,CLR,,0.00,0.0,WeatherDisplay:10.37,2013-02-21 23:53:00,
2013-02-21 18:58:00,25.8,17.4,29.94,West,271,14.0,14.0,70,0.00,CLR,,0.00,0.0,WeatherDisplay:10.37,2013-02-21 23:58:00,
2013-02-21 19:03:00,26.0,17.6,29.94,West,267,11.5,11.5,70,0.00,CLR,,0.00,0.0,WeatherDisplay:10.37,2013-02-22 00:03:00,
2013-02-21 19:08:00,26.1,17.6,29.95,NW,304,13.8,13.8,70,0.00,CLR,,0.00,0.0,WeatherDisplay:10.37,2013-02-22 00:08:00,
2013-02-21 19:13:00,26.3,17.8,29.95,NW,306,17.3,17.3,70,0.00,CLR,,0.00,0.0,WeatherDisplay:10.37,2013-02-22 00:13:00,
2013-02-21 19:18:00,26.5,18.0,29.95,WNW,297,18.4,18.4,70,0.00,CLR,,0.00,0.0,WeatherDisplay:10.37,2013-02-22 00:18:00,
2013-02-21 19:23:00,26.5,18.0,29.96,WNW,290,16.1,16.1,70,0.00,CLR,,0.00,0.0,WeatherDisplay:10.37,2013-02-22 00:23:00,
2013-02-21 19:28:00,26.6,18.1,29.96,West,276,19.6,19.6,70,0.00,CLR,,0.00,0.0,WeatherDisplay:10.37,2013-02-22 00:28:00,
2013-02-21 19:33:00,26.7,18.2,29.96,West,276,13.8,13.8,70,0.00,CLR,,0.00,0.0,WeatherDisplay:10.37,2013-02-22 00:33:00,
2013-02-21 19:38:00,26.9,18.1,29.96,West,269,17.3,17.3,69,0.00,CLR,,0.00,0.0,WeatherDisplay:10.37,2013-02-22 00:38:00,
2013-02-21 19:43:00,27.1,18.3,29.96,NW,306,18.4,18.4,69,0.00,CLR,,0.00,0.0,WeatherDisplay:10.37,2013-02-22 00:43:00,
2013-02-21 19:48:00,27.3,18.5,29.96,WNW,296,19.6,19.6,69,0.00,CLR,,0.00,0.0,WeatherDisplay:10.37,2013-02-22 00:48:00,
2013-02-21 19:53:00,27.4,18.2,29.98,NW,309,17.3,17.3,68,0.00,CLR,,0.00,0.0,WeatherDisplay:10.37,2013-02-22 00:53:00,
2013-02-21 19:58:00,27.3,18.1,29.98,WNW,287,12.7,12.7,68,0.00,CLR,,0.00,0.0,WeatherDisplay:10.37,2013-02-22 00:58:00,
2013-02-21 20:03:00,27.2,18.0,29.98,WNW,290,21.9,21.9,68,0.00,CLR,,0.00,0.0,WeatherDisplay:10.37,2013-02-22 01:03:00,
2013-02-21 20:08:00,27.3,17.8,29.99,NW,320,18.4,18.4,67,0.00,CLR,,0.00,0.0,WeatherDisplay:10.37,2013-02-22 01:08:00,
2013-02-21 20:13:00,27.2,18.0,29.99,WNW,302,17.3,17.3,68,0.00,CLR,,0.00,0.0,WeatherDisplay:10.37,2013-02-22 01:13:00,
2013-02-21 20:18:00,27.2,18.0,29.99,NW,305,19.6,19.6,68,0.00,CLR,,0.00,0.0,WeatherDisplay:10.37,2013-02-22 01:18:00,
2013-02-21 20:23:00,27.1,17.9,30.00,WNW,284,10.0,10.0,68,0.00,CLR,,0.00,0.0,WeatherDisplay:10.37,2013-02-22 01:23:00,
2013-02-21 20:28:00,27.2,18.0,30.00,WNW,298,15.0,15.0,68,0.00,CLR,,0.00,0.0,WeatherDisplay:10.37,2013-02-22 01:28:00,
2013-02-21 20:33:00,27.3,18.1,30.00,WNW,289,11.5,11.5,68,0.00,CLR,,0.00,0.0,WeatherDisplay:10.37,2013-02-22 01:33:00,
2013-02-21 20:38:00,27.4,18.2,30.00,NW,307,7.0,7.0,68,0.00,CLR,,0.00,0.0,WeatherDisplay:10.37,2013-02-22 01:38:00,
2013-02-21 20:43:00,27.5,18.3,30.00,NW,315,13.8,13.8,68,0.00,CLR,,0.00,0.0,WeatherDisplay:10.37,2013-02-22 01:43:00,
2013-02-21 20:48:00,27.5,18.3,30.00,West,281,12.0,12.0,68,0.00,CLR,,0.00,0.0,WeatherDisplay:10.37,2013-02-22 01:48:00,
2013-02-21 20:53:00,27.6,18.4,30.01,NW,313,11.0,11.0,68,0.00,CLR,,0.00,0.0,WeatherDisplay:10.37,2013-02-22 01:53:00,
2013-02-21 20:58:00,27.4,18.2,30.01,WNW,286,10.4,10.4,68,0.00,CLR,,0.00,0.0,WeatherDisplay:10.37,2013-02-22 01:58:00,
2013-02-21 21:03:00,27.4,18.2,30.01,WNW,289,6.9,6.9,68,0.00,CLR,,0.00,0.0,WeatherDisplay:10.37,2013-02-22 02:03:00,
2013-02-21 21:08:00,27.2,18.0,30.02,WNW,285,4.6,4.6,68,0.00,CLR,,0.00,0.0,WeatherDisplay:10.37,2013-02-22 02:08:00,
2013-02-21 21:13:00,27.1,18.3,30.02,West,277,15.0,15.0,69,0.00,CLR,,0.00,0.0,WeatherDisplay:10.37,2013-02-22 02:13:00,
2013-02-21 21:18:00,27.2,18.4,30.02,WNW,294,12.7,12.7,69,0.00,CLR,,0.00,0.0,WeatherDisplay:10.37,2013-02-22 02:18:00,
2013-02-21 21:23:00,27.2,18.4,30.02,WNW,284,12.7,12.7,69,0.00,CLR,,0.00,0.0,WeatherDisplay:10.37,2013-02-22 02:23:00,
2013-02-21 21:28:00,27.4,18.9,30.02,WNW,291,15.0,15.0,70,0.00,CLR,,0.00,0.0,WeatherDisplay:10.37,2013-02-22 02:28:00,
2013-02-21 21:33:00,27.6,19.1,30.02,WNW,287,15.0,15.0,70,0.00,CLR,,0.00,0.0,WeatherDisplay:10.37,2013-02-22 02:33:00,
2013-02-21 21:38:00,27.8,19.3,30.02,WNW,298,13.8,13.8,70,0.00,CLR,,0.00,0.0,WeatherDisplay:10.37,2013-02-22 02:38:00,
2013-02-21 21:43:00,28.0,19.5,30.02,WNW,302,13.8,13.8,70,0.00,CLR,,0.00,0.0,WeatherDisplay:10.37,2013-02-22 02:43:00,
2013-02-21 21:48:00,28.1,19.6,30.02,West,275,16.1,16.1,70,0.00,CLR,,0.00,0.0,WeatherDisplay:10.37,2013-02-22 02:48:00,
2013-02-21 21:53:00,28.3,19.8,30.03,WNW,294,17.3,17.3,70,0.00,CLR,,0.00,0.0,WeatherDisplay:10.37,2013-02-22 02:53:00,
2013-02-21 21:58:00,28.5,20.0,30.03,WNW,291,9.2,9.2,70,0.00,CLR,,0.00,0.0,WeatherDisplay:10.37,2013-02-22 02:58:00,
2013-02-21 22:03:00,28.5,20.3,30.03,WNW,302,11.5,11.5,71,0.00,CLR,,0.00,0.0,WeatherDisplay:10.37,2013-02-22 03:03:00,
2013-02-21 22:08:00,28.5,20.3,30.03,WNW,291,5.8,5.8,71,0.00,CLR,,0.00,0.0,WeatherDisplay:10.37,2013-02-22 03:08:00,
2013-02-21 22:13:00,28.5,20.3,30.03,West,280,5.8,5.8,71,0.00,CLR,,0.00,0.0,WeatherDisplay:10.37,2013-02-22 03:13:00,
2013-02-21 22:18:00,28.6,20.4,30.03,NW,310,6.9,6.9,71,0.00,CLR,,0.00,0.0,WeatherDisplay:10.37,2013-02-22 03:18:00,
2013-02-21 22:23:00,28.6,20.7,30.04,NNW,333,11.5,11.5,72,0.00,CLR,,0.00,0.0,WeatherDisplay:10.37,2013-02-22 03:23:00,
2013-02-21 22:28:00,28.7,20.8,30.04,West,280,9.0,9.0,72,0.00,CLR,,0.00,0.0,WeatherDisplay:10.37,2013-02-22 03:28:00,
2013-02-21 22:33:00,28.7,20.8,30.04,WNW,296,9.2,9.2,72,0.00,CLR,,0.00,0.0,WeatherDisplay:10.37,2013-02-22 03:33:00,
2013-02-21 22:38:00,28.7,20.8,30.04,NNW,332,5.8,5.8,72,0.00,CLR,,0.00,0.0,WeatherDisplay:10.37,2013-02-22 03:38:00,
2013-02-21 22:43:00,28.5,20.9,30.04,WNW,296,5.0,5.0,73,0.00,CLR,,0.00,0.0,WeatherDisplay:10.37,2013-02-22 03:43:00,
2013-02-21 22:48:00,28.5,20.9,30.04,West,273,6.9,6.9,73,0.00,CLR,,0.00,0.0,WeatherDisplay:10.37,2013-02-22 03:48:00,
2013-02-21 22:54:00,28.5,21.3,30.05,WNW,287,11.5,11.5,74,0.00,CLR,,0.00,0.0,WeatherDisplay:10.37,2013-02-22 03:54:00,
2013-02-21 22:59:00,28.7,21.1,30.05,WNW,283,3.5,3.5,73,0.00,CLR,,0.00,0.0,WeatherDisplay:10.37,2013-02-22 03:59:00,
2013-02-21 23:04:00,28.6,21.4,30.05,NNW,336,5.8,5.8,74,0.00,CLR,,0.00,0.0,WeatherDisplay:10.37,2013-02-22 04:04:00,
2013-02-21 23:09:00,28.7,21.5,30.07,WNW,286,3.5,3.5,74,0.00,CLR,,0.00,0.0,WeatherDisplay:10.37,2013-02-22 04:09:00,
2013-02-21 23:14:00,28.7,21.5,30.07,NW,308,3.5,3.5,74,0.00,CLR,,0.00,0.0,WeatherDisplay:10.37,2013-02-22 04:14:00,
2013-02-21 23:19:00,28.5,21.3,30.07,NW,307,1.2,1.2,74,0.00,CLR,,0.00,0.0,WeatherDisplay:10.37,2013-02-22 04:19:00,
2013-02-21 23:24:00,28.2,21.3,30.08,NW,308,0.0,0.0,75,0.00,CLR,,0.00,0.0,WeatherDisplay:10.37,2013-02-22 04:24:00,
2013-02-21 23:29:00,27.9,21.0,30.08,WNW,292,3.5,3.5,75,0.00,CLR,,0.00,0.0,WeatherDisplay:10.37,2013-02-22 04:29:00,
2013-02-21 23:34:00,27.6,21.0,30.08,West,270,0.0,0.0,76,0.00,CLR,,0.00,0.0,WeatherDisplay:10.37,2013-02-22 04:34:00,
2013-02-21 23:39:00,27.1,20.5,30.09,West,270,1.2,1.2,76,0.00,CLR,,0.00,0.0,WeatherDisplay:10.37,2013-02-22 04:39:00,
2013-02-21 23:44:00,26.5,20.3,30.09,West,270,1.2,1.2,77,0.00,CLR,,0.00,0.0,WeatherDisplay:10.37,2013-02-22 04:44:00,
2013-02-21 23:49:00,26.1,20.2,30.09,West,270,1.2,0.0,78,0.00,CLR,,0.00,0.0,WeatherDisplay:10.37,2013-02-22 04:49:00,
2013-02-21 23:54:00,25.9,20.0,30.10,West,270,0.0,0.0,78,0.00,CLR,,0.00,0.0,WeatherDisplay:10.37,2013-02-22 04:54:00,
2013-02-21 23:59:00,25.8,19.9,30.10,West,270,2.3,2.3,78,0.00,CLR,,0.00,0.0,WeatherDisplay:10.37,2013-02-22 04:59:00,